Time;durP1;ratioP1;P1;durP2;ratioP2;P2;SDS_P1;SDS_P2;PMS_P1;PMS_P2;Temp;Humidity;BMP_temperature;BMP_pressure;BME280_temperature;BME280_humidity;BME280_pressure;Samples;Min_cycle;Max_cycle;Signal;HPM_P1;HPM_P2
2022/03/04 00:21:40;;;;;;;15.75;8.82;;;;;;;;;;6107170;23;20093;-89
2022/03/04 00:24:38;;;;;;;15.98;8.07;;;;;;;;;;6177784;23;20024;-91
2022/03/04 00:27:10;;;;;;;14.65;8.38;;;;;;;;;;6024204;23;20030;-89
2022/03/04 00:29:37;;;;;;;15.93;7.95;;;;;;;;;;6022838;23;20016;-89
2022/03/04 00:32:08;;;;;;;17.80;9.02;;;;;;;;;;6000360;23;20019;-89
2022/03/04 00:34:34;;;;;;;17.00;8.43;;;;;;;;;;5997659;23;20024;-89
2022/03/04 00:37:00;;;;;;;17.40;8.90;;;;;;;;;;6022826;23;20015;-89
2022/03/04 00:39:32;;;;;;;14.77;7.93;;;;;;;;;;6024416;23;20039;-90
2022/03/04 00:41:58;;;;;;;17.08;8.23;;;;;;;;;;6001416;23;20015;-89
2022/03/04 00:44:24;;;;;;;13.05;8.25;;;;;;;;;;6019126;23;20078;-90
2022/03/04 00:46:50;;;;;;;15.13;8.02;;;;;;;;;;6017820;23;20058;-89
2022/03/04 00:49:17;;;;;;;12.15;7.97;;;;;;;;;;6041658;23;20019;-91
2022/03/04 00:51:43;;;;;;;19.77;9.68;;;;;;;;;;6001563;23;20031;-91
2022/03/04 00:54:16;;;;;;;14.82;8.57;;;;;;;;;;6003524;23;20497;-92
2022/03/04 00:56:42;;;;;;;14.45;8.85;;;;;;;;;;6008935;23;20024;-90
2022/03/04 00:59:08;;;;;;;16.98;8.30;;;;;;;;;;6199712;23;20516;-90
2022/03/04 01:01:34;;;;;;;16.33;8.75;;;;;;;;;;6175470;23;20027;-91
2022/03/04 01:04:01;;;;;;;18.45;9.15;;;;;;;;;;6174563;23;20341;-90
2022/03/04 01:06:29;;;;;;;17.67;9.55;;;;;;;;;;6198896;23;20016;-92
2022/03/04 01:09:01;;;;;;;18.17;9.75;;;;;;;;;;6197633;23;20020;-91
2022/03/04 01:11:30;;;;;;;15.77;10.20;;;;;;;;;;6219974;23;20020;-91
2022/03/04 01:13:58;;;;;;;19.88;10.95;;;;;;;;;;6194292;23;20021;-93
2022/03/04 01:16:36;;;;;;;21.17;10.73;;;;;;;;;;6169837;23;20028;-92
2022/03/04 01:19:11;;;;;;;19.33;9.77;;;;;;;;;;6171697;23;20023;-94
2022/03/04 01:21:38;;;;;;;19.33;9.95;;;;;;;;;;6168924;23;20023;-93
2022/03/04 01:24:08;;;;;;;16.05;9.20;;;;;;;;;;6167062;23;20365;-92
2022/03/04 01:26:34;;;;;;;17.55;9.38;;;;;;;;;;6143832;23;20103;-90
2022/03/04 01:29:00;;;;;;;19.77;10.77;;;;;;;;;;6125382;23;20017;-88
2022/03/04 01:31:29;;;;;;;24.33;11.02;;;;;;;;;;6175456;23;20032;-89
2022/03/04 01:33:57;;;;;;;18.20;11.23;;;;;;;;;;6150586;23;20017;-89
2022/03/04 01:36:33;;;;;;;17.65;10.27;;;;;;;;;;6201109;23;20028;-88
2022/03/04 01:39:00;;;;;;;17.02;10.82;;;;;;;;;;6174338;23;20055;-88
2022/03/04 01:41:28;;;;;;;18.83;11.10;;;;;;;;;;6149433;23;20017;-88
2022/03/04 01:43:55;;;;;;;18.15;11.65;;;;;;;;;;6148741;23;20455;-88
2022/03/04 01:46:28;;;;;;;19.90;11.82;;;;;;;;;;6172336;23;20013;-88
2022/03/04 01:48:56;;;;;;;20.90;11.25;;;;;;;;;;6173385;23;20028;-89
2022/03/04 01:51:41;;;;;;;20.13;11.00;;;;;;;;;;6175971;23;20017;-89
2022/03/04 01:54:07;;;;;;;19.27;11.52;;;;;;;;;;6173543;23;20028;-89
2022/03/04 01:56:33;;;;;;;19.05;11.90;;;;;;;;;;6149329;23;20065;-89
2022/03/04 01:59:03;;;;;;;18.15;10.60;;;;;;;;;;6148517;23;20024;-89
2022/03/04 02:01:30;;;;;;;19.25;11.77;;;;;;;;;;6147313;23;20043;-89
2022/03/04 02:03:56;;;;;;;19.50;10.73;;;;;;;;;;6122618;23;20021;-89
2022/03/04 02:06:22;;;;;;;24.00;12.38;;;;;;;;;;6146880;23;20028;-89
2022/03/04 02:08:57;;;;;;;21.67;11.00;;;;;;;;;;6170887;23;20065;-89
2022/03/04 02:11:23;;;;;;;24.88;12.45;;;;;;;;;;6144945;23;20019;-89
2022/03/04 02:13:50;;;;;;;20.55;11.75;;;;;;;;;;6144478;23;20075;-89
2022/03/04 02:16:22;;;;;;;22.00;12.40;;;;;;;;;;6144098;23;20020;-89
2022/03/04 02:18:48;;;;;;;21.00;11.60;;;;;;;;;;6168184;23;20024;-89
2022/03/04 02:21:17;;;;;;;25.98;11.57;;;;;;;;;;6194799;23;20017;-88
2022/03/04 02:23:43;;;;;;;21.60;12.57;;;;;;;;;;6143657;23;20017;-89
2022/03/04 02:26:12;;;;;;;18.40;11.48;;;;;;;;;;6167313;23;20029;-90
2022/03/04 02:28:38;;;;;;;23.33;12.80;;;;;;;;;;6165855;23;20017;-91
2022/03/04 02:31:05;;;;;;;19.77;12.38;;;;;;;;;;6193074;23;20012;-90
2022/03/04 02:33:31;;;;;;;20.02;12.02;;;;;;;;;;6192655;23;20043;-90
2022/03/04 02:35:58;;;;;;;25.23;13.40;;;;;;;;;;6169240;23;20027;-89
2022/03/04 02:38:24;;;;;;;18.83;11.35;;;;;;;;;;6170661;23;20056;-90
2022/03/04 02:40:50;;;;;;;21.35;12.07;;;;;;;;;;6197782;23;20013;-89
2022/03/04 02:43:18;;;;;;;22.83;12.05;;;;;;;;;;6197164;23;20013;-89
2022/03/04 02:45:44;;;;;;;19.65;11.35;;;;;;;;;;6172292;23;20017;-89
2022/03/04 02:48:13;;;;;;;17.65;11.50;;;;;;;;;;6172766;23;20053;-92
2022/03/04 02:50:39;;;;;;;22.08;11.82;;;;;;;;;;6174524;23;20025;-92
2022/03/04 02:53:05;;;;;;;19.60;11.38;;;;;;;;;;6198756;23;20021;-90
2022/03/04 02:55:31;;;;;;;19.92;11.68;;;;;;;;;;6175075;23;20052;-89
2022/03/04 02:57:57;;;;;;;24.60;13.55;;;;;;;;;;6200213;23;20096;-91
2022/03/04 03:00:23;;;;;;;24.15;11.05;;;;;;;;;;6175176;23;20017;-91
2022/03/04 03:02:49;;;;;;;19.73;11.88;;;;;;;;;;6174195;23;20028;-91
2022/03/04 03:05:20;;;;;;;24.33;13.10;;;;;;;;;;6173303;23;20024;-91
2022/03/04 03:07:46;;;;;;;21.40;11.48;;;;;;;;;;6162097;23;20052;-87
2022/03/04 03:10:15;;;;;;;20.17;11.63;;;;;;;;;;6188680;23;20017;-87
2022/03/04 03:12:42;;;;;;;25.92;13.15;;;;;;;;;;6188027;23;20099;-88
2022/03/04 03:15:12;;;;;;;22.42;12.35;;;;;;;;;;6188719;23;20391;-88
2022/03/04 03:17:38;;;;;;;21.92;11.10;;;;;;;;;;6190056;23;20024;-88
2022/03/04 03:20:08;;;;;;;19.15;11.70;;;;;;;;;;6188076;23;20013;-87
2022/03/04 03:22:37;;;;;;;25.80;12.52;;;;;;;;;;6189079;23;20024;-88
2022/03/04 03:25:04;;;;;;;20.05;10.38;;;;;;;;;;6163170;23;20021;-88
2022/03/04 03:27:34;;;;;;;22.88;12.93;;;;;;;;;;6162375;23;20021;-88
2022/03/04 03:30:00;;;;;;;26.83;12.63;;;;;;;;;;6162277;23;20017;-88
2022/03/04 03:32:29;;;;;;;24.40;12.15;;;;;;;;;;6187418;23;20025;-88
2022/03/04 03:34:55;;;;;;;30.02;12.55;;;;;;;;;;6162891;23;20013;-87
2022/03/04 03:37:21;;;;;;;25.52;13.32;;;;;;;;;;6162852;23;20017;-87
2022/03/04 03:39:48;;;;;;;25.23;12.77;;;;;;;;;;6163317;23;20352;-87
2022/03/04 03:42:14;;;;;;;20.90;11.95;;;;;;;;;;6162963;23;20032;-88
2022/03/04 03:44:40;;;;;;;28.15;13.15;;;;;;;;;;6162446;23;20028;-88
2022/03/04 03:47:06;;;;;;;21.08;11.40;;;;;;;;;;6162906;23;20029;-88
2022/03/04 03:49:33;;;;;;;22.65;12.77;;;;;;;;;;6187009;23;20017;-88
2022/03/04 03:51:59;;;;;;;20.33;12.75;;;;;;;;;;6187179;23;20013;-88
2022/03/04 03:54:25;;;;;;;20.50;13.05;;;;;;;;;;6162300;23;20043;-88
2022/03/04 03:56:51;;;;;;;27.20;13.65;;;;;;;;;;6162357;23;20016;-88
2022/03/04 03:59:20;;;;;;;24.48;12.50;;;;;;;;;;6162691;23;20069;-89
2022/03/04 04:01:46;;;;;;;20.20;11.85;;;;;;;;;;6162373;23;20397;-88
2022/03/04 04:04:12;;;;;;;20.88;13.00;;;;;;;;;;6162905;23;20009;-88
2022/03/04 04:06:39;;;;;;;23.45;13.65;;;;;;;;;;6162818;23;20017;-89
2022/03/04 04:09:12;;;;;;;24.25;12.23;;;;;;;;;;6188193;23;20036;-91
2022/03/04 04:11:40;;;;;;;25.08;12.68;;;;;;;;;;6162341;23;20514;-91
2022/03/04 04:14:10;;;;;;;21.70;11.65;;;;;;;;;;6162138;23;20028;-91
2022/03/04 04:16:36;;;;;;;22.95;13.05;;;;;;;;;;6161642;23;20096;-90
2022/03/04 04:19:03;;;;;;;22.75;12.05;;;;;;;;;;6186443;23;20021;-90
2022/03/04 04:21:34;;;;;;;24.55;11.98;;;;;;;;;;6162316;23;20354;-89
2022/03/04 04:24:03;;;;;;;33.20;13.00;;;;;;;;;;6162031;23;20029;-90
2022/03/04 04:26:29;;;;;;;21.88;13.88;;;;;;;;;;6163159;23;20024;-90
2022/03/04 04:28:56;;;;;;;21.77;12.27;;;;;;;;;;6162927;23;20013;-90
2022/03/04 04:31:22;;;;;;;23.42;12.60;;;;;;;;;;6161295;23;20017;-89
2022/03/04 04:33:51;;;;;;;22.73;11.88;;;;;;;;;;6162924;23;20032;-89
2022/03/04 04:36:19;;;;;;;25.42;12.82;;;;;;;;;;6162803;23;20028;-89
2022/03/04 04:38:46;;;;;;;24.42;12.65;;;;;;;;;;6188211;23;20040;-91
2022/03/04 04:41:12;;;;;;;29.83;13.95;;;;;;;;;;6163505;23;20017;-92
2022/03/04 04:43:38;;;;;;;20.63;11.93;;;;;;;;;;6157498;23;20071;-91
2022/03/04 04:46:11;;;;;;;23.25;12.27;;;;;;;;;;6139029;23;20022;-92
2022/03/04 04:48:40;;;;;;;21.85;11.65;;;;;;;;;;6163841;23;20141;-91
2022/03/04 04:51:07;;;;;;;22.02;12.45;;;;;;;;;;6162680;23;20065;-89
2022/03/04 04:53:34;;;;;;;25.75;14.73;;;;;;;;;;6140073;23;20017;-91
2022/03/04 04:56:00;;;;;;;26.27;13.45;;;;;;;;;;6165233;23;20077;-92
2022/03/04 04:58:27;;;;;;;31.73;12.52;;;;;;;;;;6141871;23;20024;-90
2022/03/04 05:00:53;;;;;;;27.85;13.65;;;;;;;;;;6165313;23;20013;-90
2022/03/04 05:03:29;;;;;;;22.30;12.13;;;;;;;;;;6139997;23;20410;-94
2022/03/04 05:05:55;;;;;;;24.50;13.43;;;;;;;;;;6166322;23;20109;-91
2022/03/04 05:08:24;;;;;;;25.85;12.38;;;;;;;;;;6167457;23;20017;-91
2022/03/04 05:10:54;;;;;;;30.25;13.48;;;;;;;;;;6142424;23;20304;-93
2022/03/04 05:13:20;;;;;;;26.05;13.82;;;;;;;;;;6141347;23;20132;-92
2022/03/04 05:15:48;;;;;;;27.90;12.95;;;;;;;;;;6140429;23;20067;-91
2022/03/04 05:18:14;;;;;;;30.45;16.10;;;;;;;;;;6140505;23;20095;-91
2022/03/04 05:20:44;;;;;;;25.23;13.52;;;;;;;;;;6165502;23;20017;-91
2022/03/04 05:23:10;;;;;;;26.38;13.45;;;;;;;;;;6141430;23;20052;-92
2022/03/04 05:25:40;;;;;;;27.50;16.40;;;;;;;;;;6140346;23;20020;-93
2022/03/04 05:28:07;;;;;;;28.33;12.68;;;;;;;;;;6164950;23;20023;-91
2022/03/04 05:30:33;;;;;;;21.83;12.27;;;;;;;;;;6140737;23;20024;-90
2022/03/04 05:32:59;;;;;;;27.27;14.30;;;;;;;;;;6140661;23;20439;-90
2022/03/04 05:35:37;;;;;;;30.08;14.05;;;;;;;;;;6165523;23;20017;-93
2022/03/04 05:38:06;;;;;;;25.67;13.93;;;;;;;;;;6165382;23;20017;-91
2022/03/04 05:40:35;;;;;;;24.92;13.30;;;;;;;;;;6165864;23;20021;-90
2022/03/04 05:43:01;;;;;;;23.23;11.60;;;;;;;;;;6141580;23;20013;-90
2022/03/04 05:45:34;;;;;;;22.00;11.50;;;;;;;;;;6140815;23;20079;-91
2022/03/04 05:48:00;;;;;;;28.15;15.18;;;;;;;;;;6117836;23;20029;-92
2022/03/04 05:50:27;;;;;;;24.58;12.80;;;;;;;;;;6164965;23;20017;-90
2022/03/04 05:52:53;;;;;;;32.97;13.48;;;;;;;;;;6140160;23;20048;-90
2022/03/04 05:55:19;;;;;;;23.75;12.68;;;;;;;;;;6166329;23;20016;-89
2022/03/04 05:57:45;;;;;;;29.98;14.80;;;;;;;;;;6165607;23;20021;-89
2022/03/04 06:00:12;;;;;;;29.02;14.27;;;;;;;;;;6165950;23;20336;-90
2022/03/04 06:02:38;;;;;;;28.88;13.15;;;;;;;;;;6194055;23;20404;-93
2022/03/04 06:05:04;;;;;;;30.70;15.30;;;;;;;;;;6147528;23;20017;-93
2022/03/04 06:07:33;;;;;;;32.80;14.10;;;;;;;;;;6166313;23;20028;-91
2022/03/04 06:10:00;;;;;;;24.75;13.73;;;;;;;;;;6142192;23;20013;-95
2022/03/04 06:12:26;;;;;;;28.85;14.38;;;;;;;;;;6139837;23;20064;-92
2022/03/04 06:14:52;;;;;;;27.02;13.95;;;;;;;;;;6140514;23;20017;-91
2022/03/04 06:17:18;;;;;;;28.27;15.10;;;;;;;;;;6140109;23;20056;-90
2022/03/04 06:19:45;;;;;;;33.45;16.15;;;;;;;;;;6140853;23;20073;-95
2022/03/04 06:22:11;;;;;;;35.10;14.35;;;;;;;;;;6139927;23;20513;-94
2022/03/04 06:24:37;;;;;;;41.78;16.67;;;;;;;;;;6166571;23;20017;-89
2022/03/04 06:27:04;;;;;;;33.58;15.82;;;;;;;;;;6136944;23;20071;-88
2022/03/04 06:29:30;;;;;;;26.80;15.45;;;;;;;;;;6138256;23;20017;-88
2022/03/04 06:31:56;;;;;;;29.88;14.98;;;;;;;;;;6137418;23;20512;-88
2022/03/04 06:34:22;;;;;;;30.02;15.45;;;;;;;;;;6162993;23;20035;-88
2022/03/04 06:36:48;;;;;;;30.88;15.05;;;;;;;;;;6138173;23;20017;-88
2022/03/04 06:39:14;;;;;;;30.48;14.88;;;;;;;;;;6162030;23;20017;-87
2022/03/04 06:41:41;;;;;;;27.48;15.10;;;;;;;;;;6162550;23;20021;-88
2022/03/04 06:44:07;;;;;;;33.08;15.05;;;;;;;;;;6138394;23;20065;-88
2022/03/04 06:46:34;;;;;;;28.00;14.93;;;;;;;;;;6163670;23;20025;-91
2022/03/04 06:49:10;;;;;;;;;;;;;;;;;;;;;
2022/03/04 06:51:40;;;;;;;29.98;14.40;;;;;;;;;;6162530;23;20017;-88
2022/03/04 06:54:08;;;;;;;29.40;12.70;;;;;;;;;;6138767;23;20064;-87
2022/03/04 06:56:52;;;;;;;27.05;13.30;;;;;;;;;;6163231;23;20052;-87
2022/03/04 06:59:18;;;;;;;;;;;-0.20;99.90;;;;;;6137787;23;20399;-88
2022/03/04 07:01:47;;;;;;;25.55;13.90;;;;;;;;;;6137539;23;19921;-88
2022/03/04 07:04:13;;;;;;;26.42;13.63;;;;;;;;;;6137869;23;20075;-88
2022/03/04 07:06:39;;;;;;;24.95;12.52;;;;;;;;;;6161984;23;20017;-88
2022/03/04 07:09:07;;;;;;;22.98;13.48;;;;;;;;;;6137936;23;20040;-88
2022/03/04 07:11:33;;;;;;;26.27;14.70;;;;;;;;;;6137995;23;20009;-88
2022/03/04 07:13:59;;;;;;;28.92;14.73;;;;;;;;;;6161722;23;20099;-87
2022/03/04 07:16:26;;;;;;;27.35;14.38;;;;;;;;;;6137374;23;20024;-88
2022/03/04 07:18:52;;;;;;;29.25;15.52;;;;;;;;;;6136951;23;20040;-88
2022/03/04 07:21:23;;;;;;;29.25;15.18;;;;;;;;;;6138503;23;20013;-87
2022/03/04 07:23:49;;;;;;;29.90;15.48;;;;;;;;;;6138190;23;20447;-87
2022/03/04 07:26:16;;;;;;;32.83;16.17;;;;;;;;;;6162806;23;20013;-87
2022/03/04 07:28:43;;;;;;;27.75;15.20;;;;;;;;;;6137734;23;20021;-87
2022/03/04 07:31:09;;;;;;;23.40;12.48;;;;;;;;;;6163416;23;20017;-87
2022/03/04 07:33:36;;;;;;;26.38;14.02;;;;;;;;;;6137705;23;20036;-87
2022/03/04 07:36:04;;;;;;;27.20;12.13;;;;;;;;;;6163315;23;20092;-87
2022/03/04 07:38:35;;;;;;;30.40;15.48;;;;;;;;;;6138355;23;20021;-87
2022/03/04 07:41:01;;;;;;;31.05;15.05;;;;;;;;;;6137210;23;20343;-87
2022/03/04 07:43:30;;;;;;;24.15;14.13;;;;;;;;;;6137605;23;20400;-88
2022/03/04 07:45:56;;;;;;;28.05;14.65;;;;;;;;;;6157851;23;20020;-87
2022/03/04 07:48:23;;;;;;;28.58;15.20;;;;;;;;;;6186926;23;20020;-87
2022/03/04 07:50:49;;;;;;;32.92;15.90;;;;;;;;;;6187621;23;20025;-88
2022/03/04 07:53:18;;;;;;;25.88;13.98;;;;;;;;;;6139652;23;20014;-88
2022/03/04 07:55:44;;;;;;;28.02;14.10;;;;;;;;;;6186726;23;20021;-88
2022/03/04 07:58:13;;;;;;;26.55;14.57;;;;;;;;;;6162056;23;20028;-88
2022/03/04 08:00:44;;;;;;;23.90;14.52;;;;;;;;;;6162002;23;20021;-88
2022/03/04 08:03:12;;;;;;;27.17;14.35;;;;;;;;;;6162212;23;20371;-88
2022/03/04 08:05:42;;;;;;;29.35;14.77;;;;;;;;;;6162906;23;20013;-88
2022/03/04 08:08:11;;;;;;;25.90;13.35;;;;;;;;;;6161877;23;20039;-89
2022/03/04 08:13:27;;;;;;;30.50;15.57;;;;;;;;;;6222604;23;20024;-90
2022/03/04 08:15:57;;;;;;;28.73;14.10;;;;;;;;;;6167102;22;20022;-89
2022/03/04 08:18:24;;;;;;;26.70;14.48;;;;;;;;;;6184641;23;20029;-89
2022/03/04 08:20:51;;;;;;;27.63;14.10;;;;;;;;;;6190477;23;20043;-91
2022/03/04 08:23:18;;;;;;;32.03;14.50;;;;;;;;;;6159382;23;20091;-90
2022/03/04 08:25:49;;;;;;;26.95;15.75;;;;;;;;;;6168803;23;20027;-92
2022/03/04 12:00:49;;;;;;;21.95;10.68;;;;;;;;;;6200645;22;20032;-91
2022/03/04 12:03:17;;;;;;;13.98;9.18;;;;;;;;;;6196461;23;20066;-93
2022/03/04 12:05:47;;;;;;;17.65;10.10;;;;;;;;;;6198230;23;20108;-94
2022/03/04 12:08:13;;;;;;;16.85;10.50;;;;;;;;;;6199237;23;20027;-94
2022/03/04 12:10:41;;;;;;;15.50;10.43;;;;;;;;;;6199492;23;20016;-92
2022/03/04 12:13:08;;;;;;;17.67;10.35;;;;;;;;;;6196467;23;20056;-92
2022/03/04 12:15:39;;;;;;;17.80;11.27;;;;;;;;;;6196271;23;20039;-90
2022/03/04 12:18:09;;;;;;;16.67;9.45;;;;;;;;;;6195680;23;20040;-91
2022/03/04 12:20:42;;;;;;;16.73;9.95;;;;;;;;;;6196095;23;20027;-93
2022/03/04 12:23:18;;;;;;;14.98;10.00;;;;;;;;;;6195889;23;20016;-91
2022/03/04 12:25:54;;;;;;;16.02;10.10;;;;;;;;;;6196234;23;20109;-91
2022/03/04 12:28:21;;;;;;;16.52;9.95;;;;;;;;;;6196812;23;20020;-92
2022/03/04 12:30:47;;;;;;;14.80;9.65;;;;;;;;;;6196448;23;20095;-92
2022/03/04 12:33:15;;;;;;;15.40;9.50;;;;;;;;;;6195722;23;20016;-92
2022/03/04 12:39:12;;;;;;;21.02;11.10;;;;;;;;;;5987472;23;20023;-93
2022/03/04 12:41:39;;;;;;;16.38;10.90;;;;;;;;;;5964461;23;20024;-92
2022/03/04 12:44:06;;;;;;;13.63;9.60;;;;;;;;;;5965566;23;20517;-93
2022/03/04 12:46:34;;;;;;;18.52;11.38;;;;;;;;;;5965060;23;20016;-93
2022/03/04 12:49:03;;;;;;;17.73;10.20;;;;;;;;;;5965286;23;20023;-94
2022/03/04 12:51:31;;;;;;;16.98;9.60;;;;;;;;;;5988644;23;20020;-93
2022/03/04 12:53:59;;;;;;;18.95;10.98;;;;;;;;;;5989081;23;20056;-93
2022/03/04 12:56:25;;;;;;;16.80;10.32;;;;;;;;;;6011101;23;20019;-93
2022/03/04 12:59:30;;;;;;;16.65;10.82;;;;;;;;;;5964483;23;20020;-93
2022/03/04 13:01:57;;;;;;;19.70;11.23;;;;;;;;;;5930718;23;20052;-92
2022/03/04 13:04:24;;;;;;;17.05;10.63;;;;;;;;;;5964513;23;20020;-92
2022/03/04 13:07:00;;;;;;;14.85;9.57;;;;;;;;;;6010278;23;20024;-91
2022/03/04 13:09:27;;;;;;;21.88;11.27;;;;;;;;;;6010544;23;20030;-92
2022/03/04 13:11:54;;;;;;;19.27;10.98;;;;;;;;;;5985941;23;20058;-91
2022/03/04 13:14:20;;;;;;;18.00;11.40;;;;;;;;;;6110078;23;20072;-91
2022/03/04 13:16:50;;;;;;;16.48;10.30;;;;;;;;;;6137375;23;20021;-91
2022/03/04 13:19:17;;;;;;;17.83;10.63;;;;;;;;;;6161673;23;20461;-90
2022/03/04 13:21:48;;;;;;;15.32;9.77;;;;;;;;;;6192648;23;20021;-91
2022/03/04 13:24:15;;;;;;;17.27;10.45;;;;;;;;;;6183054;23;20028;-89
2022/03/04 13:26:53;;;;;;;18.95;10.90;;;;;;;;;;6170999;23;20047;-87
2022/03/04 13:29:20;;;;;;;16.02;9.57;;;;;;;;;;6158435;23;20106;-90
2022/03/04 13:31:51;;;;;;;14.48;8.93;;;;;;;;;;6149160;23;20291;-90
2022/03/04 14:24:18;;;;;;;14.32;9.07;;;;;;;;;;6223666;22;20025;-89
2022/03/04 14:26:47;;;;;;;15.10;9.35;;;;;;;;;;6093996;23;20022;-93
2022/03/04 14:29:20;;;;;;;16.80;8.75;;;;;;;;;;6169699;23;20024;-95
2022/03/04 14:31:49;;;;;;;14.93;8.73;;;;;;;;;;6170165;23;20095;-96
2022/03/04 14:34:16;;;;;;;14.70;8.52;;;;;;;;;;6195978;23;20096;-95
2022/03/04 14:36:46;;;;;;;16.02;8.85;;;;;;;;;;6170121;23;20017;-89
2022/03/04 14:39:12;;;;;;;16.10;8.63;;;;;;;;;;6169958;23;20099;-92
2022/03/04 14:41:47;;;;;;;24.30;9.90;;;;;;;;;;6171026;23;20350;-90
2022/03/04 14:44:19;;;;;;;13.55;8.30;;;;;;;;;;6195019;23;20183;-92
2022/03/04 14:46:46;;;;;;;17.80;8.50;;;;;;;;;;6171596;23;20025;-88
2022/03/04 14:49:12;;;;;;;15.50;9.45;;;;;;;;;;6172374;23;20016;-91
2022/03/04 14:51:41;;;;;;;13.65;9.43;;;;;;;;;;6170557;23;20020;-90
2022/03/04 14:54:21;;;;;;;11.70;9.13;;;;;;;;;;6172444;23;20068;-91
2022/03/04 14:57:05;;;;;;;12.70;8.73;;;;;;;;;;6171596;23;20021;-94
2022/03/04 14:59:34;;;;;;;15.65;9.07;;;;;;;;;;6170981;23;20016;-93
2022/03/04 15:02:00;;;;;;;9.95;7.30;;;;;;;;;;6170168;23;20335;-94
2022/03/04 15:04:26;;;;;;;15.10;8.48;;;;;;;;;;6195934;23;20016;-94
2022/03/04 15:06:55;;;;;;;15.10;7.82;;;;;;;;;;6171261;23;20021;-93
2022/03/04 15:09:24;;;;;;;11.70;7.85;;;;;;;;;;6194750;23;20051;-94
2022/03/04 15:11:50;;;;;;;13.93;8.25;;;;;;;;;;6169979;23;20068;-93
2022/03/04 15:14:16;;;;;;;15.60;7.78;;;;;;;;;;6170010;23;20023;-95
2022/03/04 15:16:42;;;;;;;11.93;7.88;;;;;;;;;;6194011;23;20042;-90
2022/03/04 15:19:11;;;;;;;12.77;7.53;;;;;;;;;;6169546;23;20035;-93
2022/03/04 15:21:38;;;;;;;15.95;7.80;;;;;;;;;;6170003;23;20015;-92
2022/03/04 15:24:05;;;;;;;16.27;8.98;;;;;;;;;;6170417;23;20325;-92
2022/03/04 15:26:31;;;;;;;16.42;7.68;;;;;;;;;;6168972;23;20013;-93
2022/03/04 15:28:57;;;;;;;13.80;8.60;;;;;;;;;;6169164;23;20111;-92
2022/03/04 15:31:23;;;;;;;9.77;7.50;;;;;;;;;;6169724;23;20131;-94
2022/03/04 15:33:49;;;;;;;11.23;7.78;;;;;;;;;;6193459;23;20024;-94
2022/03/04 15:36:15;;;;;;;13.18;8.52;;;;;;;;;;6170029;23;20017;-93
2022/03/04 15:38:42;;;;;;;14.88;8.90;;;;;;;;;;6169102;23;20020;-92
2022/03/04 15:41:08;;;;;;;11.63;7.03;;;;;;;;;;6194743;23;20008;-93
2022/03/04 15:43:34;;;;;;;12.13;7.80;;;;;;;;;;6220685;23;20020;-94
2022/03/04 15:46:06;;;;;;;10.27;7.32;;;;;;;;;;6169091;23;20012;-95
2022/03/04 15:48:36;;;;;;;18.35;7.88;;;;;;;;;;6168468;23;20108;-92
2022/03/04 15:51:08;;;;;;;13.40;8.77;;;;;;;;;;6169678;23;20021;-94
2022/03/04 15:53:44;;;;;;;10.65;7.15;;;;;;;;;;6169041;23;20020;-91
2022/03/04 15:56:16;;;;;;;16.02;7.35;;;;;;;;;;6194640;23;20024;-93
2022/03/04 15:58:57;;;;;;;10.82;7.13;;;;;;;;;;6168579;23;20024;-93
2022/03/04 16:01:41;;;;;;;13.15;8.80;;;;;;;;;;6194409;23;20100;-93
2022/03/04 16:07:32;;;;;;;12.32;8.13;;;;;;;;;;6199709;22;20032;-92
2022/03/04 16:09:58;;;;;;;12.75;7.38;;;;;;;;;;6137015;23;20028;-91
2022/03/04 16:12:24;;;;;;;13.95;8.23;;;;;;;;;;6137612;23;20017;-91
2022/03/04 16:14:50;;;;;;;12.57;7.47;;;;;;;;;;6137932;23;20019;-91
2022/03/04 16:17:18;;;;;;;12.82;7.65;;;;;;;;;;6136812;23;20465;-90
2022/03/04 16:19:45;;;;;;;12.73;7.30;;;;;;;;;;6137034;23;20017;-92
2022/03/04 16:22:11;;;;;;;12.57;7.50;;;;;;;;;;6137258;23;20044;-91
2022/03/04 16:24:37;;;;;;;12.13;7.10;;;;;;;;;;6138199;23;20013;-91
2022/03/04 16:27:04;;;;;;;11.13;6.88;;;;;;;;;;6136442;23;20021;-91
2022/03/04 16:29:32;;;;;;;11.68;7.90;;;;;;;;;;6137657;23;20061;-91
2022/03/04 16:31:59;;;;;;;13.80;7.88;;;;;;;;;;6136325;23;20021;-92
2022/03/04 16:34:26;;;;;;;14.52;8.10;;;;;;;;;;6136926;23;20020;-92
2022/03/04 16:36:52;;;;;;;11.52;8.05;;;;;;;;;;6136622;23;20060;-91
2022/03/04 16:39:18;;;;;;;11.25;7.10;;;;;;;;;;6136315;23;20454;-91
2022/03/04 16:41:45;;;;;;;11.35;7.88;;;;;;;;;;6138264;23;20028;-91
2022/03/04 16:44:11;;;;;;;14.65;7.90;;;;;;;;;;6137991;23;20386;-91
2022/03/04 16:46:39;;;;;;;12.20;8.25;;;;;;;;;;6136248;23;20013;-92
2022/03/04 16:49:05;;;;;;;12.35;7.78;;;;;;;;;;6137616;23;20032;-91
2022/03/04 16:51:31;;;;;;;12.93;6.85;;;;;;;;;;6138661;23;20100;-91
2022/03/04 16:53:57;;;;;;;14.57;9.45;;;;;;;;;;6138668;23;20477;-92
2022/03/04 16:56:23;;;;;;;13.45;7.72;;;;;;;;;;6138544;23;20017;-92
2022/03/04 16:58:49;;;;;;;12.27;8.82;;;;;;;;;;6138549;23;20017;-91
2022/03/04 17:01:15;;;;;;;13.50;8.77;;;;;;;;;;6139371;23;20060;-92
2022/03/04 17:03:41;;;;;;;12.35;8.68;;;;;;;;;;6134378;23;20018;-91
2022/03/04 17:06:08;;;;;;;13.30;9.30;;;;;;;;;;6108441;23;20053;-92
2022/03/04 17:08:34;;;;;;;11.82;8.48;;;;;;;;;;6108949;23;20075;-91
2022/03/04 17:11:00;;;;;;;11.50;8.85;;;;;;;;;;6109268;23;20100;-90
2022/03/04 17:13:26;;;;;;;11.95;8.88;;;;;;;;;;6109796;23;20022;-91
2022/03/04 17:15:54;;;;;;;13.27;9.85;;;;;;;;;;6109763;23;20064;-92
2022/03/04 17:18:20;;;;;;;16.95;10.38;;;;;;;;;;6109308;23;20108;-91
2022/03/04 17:20:46;;;;;;;14.68;10.27;;;;;;;;;;6109934;23;20021;-91
2022/03/04 17:23:13;;;;;;;15.88;11.02;;;;;;;;;;6110088;23;20017;-91
2022/03/04 17:25:39;;;;;;;16.52;10.77;;;;;;;;;;6108254;23;20020;-92
2022/03/04 17:28:08;;;;;;;17.48;12.38;;;;;;;;;;6109392;23;20021;-91
2022/03/04 17:30:35;;;;;;;16.85;10.52;;;;;;;;;;6109377;23;20021;-91
2022/03/04 17:33:01;;;;;;;14.95;9.43;;;;;;;;;;6133493;23;20021;-90
2022/03/04 17:35:27;;;;;;;11.27;8.43;;;;;;;;;;6110436;23;20057;-91
2022/03/04 17:37:53;;;;;;;15.32;8.40;;;;;;;;;;6109529;23;20024;-91
2022/03/04 17:40:19;;;;;;;14.27;7.88;;;;;;;;;;6109156;23;20013;-91
2022/03/04 17:42:46;;;;;;;16.10;9.52;;;;;;;;;;6109027;23;20439;-91
2022/03/04 17:45:12;;;;;;;17.00;9.00;;;;;;;;;;6109625;23;20045;-91
2022/03/04 17:47:38;;;;;;;12.00;8.05;;;;;;;;;;6107229;23;20017;-90
2022/03/04 17:50:04;;;;;;;17.67;8.48;;;;;;;;;;6107410;23;20072;-91
2022/03/04 17:52:30;;;;;;;14.48;9.18;;;;;;;;;;6107317;23;20029;-91
2022/03/04 17:54:56;;;;;;;17.55;9.63;;;;;;;;;;6106646;23;20013;-90
2022/03/04 17:57:22;;;;;;;13.65;8.57;;;;;;;;;;6133342;23;20470;-91
2022/03/04 17:59:49;;;;;;;14.60;8.77;;;;;;;;;;6107768;23;20018;-91
2022/03/04 18:02:19;;;;;;;11.60;8.18;;;;;;;;;;6107684;23;20025;-91
2022/03/04 18:04:48;;;;;;;11.30;8.30;;;;;;;;;;6132208;23;20041;-92
2022/03/04 18:07:14;;;;;;;13.73;9.00;;;;;;;;;;6106943;23;20086;-91
2022/03/04 18:09:40;;;;;;;12.98;8.88;;;;;;;;;;6108966;23;20022;-91
2022/03/04 18:12:07;;;;;;;13.75;8.43;;;;;;;;;;6109784;23;20018;-91
2022/03/04 18:14:33;;;;;;;11.73;8.38;;;;;;;;;;6110123;23;20020;-91
2022/03/04 18:16:59;;;;;;;12.40;8.68;;;;;;;;;;6109462;23;20120;-91
2022/03/04 18:19:25;;;;;;;14.02;8.98;;;;;;;;;;6110351;23;20017;-92
2022/03/04 18:21:51;;;;;;;17.27;9.85;;;;;;;;;;6110007;23;20022;-91
2022/03/04 18:24:17;;;;;;;15.23;10.20;;;;;;;;;;6109593;23;20016;-92
2022/03/04 18:26:43;;;;;;;13.43;8.50;;;;;;;;;;6109386;23;20014;-92
2022/03/04 18:29:10;;;;;;;11.77;8.02;;;;;;;;;;6109947;23;20028;-92
2022/03/04 18:31:36;;;;;;;10.95;8.35;;;;;;;;;;6133187;23;20013;-92
2022/03/04 18:34:02;;;;;;;14.80;8.20;;;;;;;;;;6109909;23;20021;-91
2022/03/04 18:36:28;;;;;;;12.13;7.85;;;;;;;;;;6108456;23;20017;-92
2022/03/04 18:41:41;;;;;;;12.98;8.40;;;;;;;;;;6134233;23;20017;-92
2022/03/04 18:44:07;;;;;;;13.63;8.90;;;;;;;;;;6109785;23;20316;-92
2022/03/04 18:46:33;;;;;;;10.90;8.20;;;;;;;;;;6108712;23;20017;-91
2022/03/04 18:49:01;;;;;;;14.10;8.80;;;;;;;;;;6127494;23;20096;-93
2022/03/04 18:52:00;;;;;;;11.68;8.15;;;;;;;;;;6165031;22;20085;31
2022/03/04 18:54:51;;;;;;;10.60;7.72;;;;;;;;;;6171049;22;20024;-89
2022/03/04 18:57:22;;;;;;;10.85;7.10;;;;;;;;;;6133512;23;20025;-93
2022/03/04 18:59:55;;;;;;;11.93;7.45;;;;;;;;;;6153052;23;20028;-93
2022/03/04 19:05:45;;;;;;;12.48;7.38;;;;;;;;;;6137407;23;20417;-92
2022/03/04 19:08:14;;;;;;;13.38;7.32;;;;;;;;;;6200832;22;20024;-92
2022/03/04 23:13:37;;;;;;;14.43;5.85;;;;;;;;;;6219845;23;20044;-93
2022/03/04 23:16:09;;;;;;;8.45;5.50;;;;;;;;;;6133141;23;20025;-91
2022/03/04 23:18:51;;;;;;;11.00;6.30;;;;;;;;;;6136074;23;20379;-92
2022/03/04 23:21:40;;;;;;;11.80;6.43;;;;;;;;;;6108563;23;20013;-92
2022/03/04 23:24:12;;;;;;;10.80;6.53;;;;;;;;;;6109928;23;20413;-91
2022/03/04 23:26:46;;;;;;;9.30;6.25;;;;;;;;;;6108579;23;20096;-92
2022/03/04 23:29:19;;;;;;;9.63;5.60;;;;;;;;;;6132639;23;20053;-90
2022/03/04 23:31:51;;;;;;;7.93;5.70;;;;;;;;;;6108350;23;20035;-91